Terminal Aerodrome Forecast
Issued by NWS Cleveland, OH

Home | Current Version | Previous Version | Graphics & Text | Print | Product List | Glossary On
Versions: 1 2 3 4 5 6 7 8 9 10 11 12 13 14 15 16 17 18
000
FTUS41 KCLE 021700
TAFCAK
TAF
KCAK 021725Z 0218/0318 26005KT P6SM SCT080 SCT200
     FM030100 VRB03KT P6SM SKC
     FM031500 24008KT P6SM SKC=

USA.gov is the U.S. government's official web portal to all federal, state and local government web resources and services.